Time;durP1;ratioP1;P1;durP2;ratioP2;P2;SDS_P1;SDS_P2;PMS_P1;PMS_P2;Temp;Humidity;BMP_temperature;BMP_pressure;BME280_temperature;BME280_humidity;BME280_pressure;Samples;Min_cycle;Max_cycle;Signal;HPM_P1;HPM_P2
2023/07/22 00:01:19;;;;;;;0.77;0.43;;;13.90;99.90;;;;;;4954524;28;20236;-83
2023/07/22 00:03:45;;;;;;;0.50;0.50;;;13.90;99.90;;;;;;4970765;28;20641;-83
2023/07/22 00:06:11;;;;;;;6.07;0.60;;;13.90;99.90;;;;;;4987730;28;20247;-84
2023/07/22 00:08:38;;;;;;;2.13;0.80;;;13.90;99.90;;;;;;4954773;28;20227;-82
2023/07/22 00:11:05;;;;;;;0.53;0.50;;;13.90;99.90;;;;;;4970152;28;20223;-83
2023/07/22 00:13:32;;;;;;;4.07;0.50;;;13.90;99.90;;;;;;4970456;28;20239;-83
2023/07/22 00:15:59;;;;;;;0.30;0.30;;;14.00;99.90;;;;;;4987261;28;20203;-83
2023/07/22 00:18:27;;;;;;;0.30;0.30;;;13.90;99.90;;;;;;4990104;28;20219;-83
2023/07/22 00:20:53;;;;;;;4.47;0.60;;;14.00;99.90;;;;;;4989695;28;20227;-84
2023/07/22 00:23:22;;;;;;;2.77;0.83;;;14.00;99.90;;;;;;4973954;28;20242;-83
2023/07/22 00:25:48;;;;;;;2.70;1.07;;;13.90;99.90;;;;;;4989546;28;20222;-84
2023/07/22 00:28:14;;;;;;;0.40;0.40;;;13.90;99.90;;;;;;5006139;28;20167;-82
2023/07/22 00:30:41;;;;;;;1.37;0.40;;;13.90;99.90;;;;;;4990472;28;20179;-82
2023/07/22 00:33:07;;;;;;;2.67;0.40;;;13.90;99.90;;;;;;4989873;28;20215;-83
2023/07/22 00:35:33;;;;;;;5.80;1.00;;;13.80;99.90;;;;;;5007334;28;20218;-80
2023/07/22 00:38:00;;;;;;;2.33;0.70;;;13.80;99.90;;;;;;4973665;28;20295;-82
2023/07/22 00:40:26;;;;;;;0.30;0.30;;;13.70;99.90;;;;;;4973960;28;20258;-81
2023/07/22 00:42:51;;;;;;;1.03;0.60;;;13.70;99.90;;;;;;4974466;28;20572;-81
2023/07/22 00:45:17;;;;;;;0.90;0.40;;;13.70;99.90;;;;;;4973893;28;20227;-81
2023/07/22 00:47:45;;;;;;;2.00;0.93;;;13.80;99.90;;;;;;4989877;28;20230;-82
2023/07/22 00:50:10;;;;;;;0.77;0.77;;;13.70;99.90;;;;;;5008123;28;20277;-82
2023/07/22 00:52:37;;;;;;;0.90;0.70;;;13.70;99.90;;;;;;4964867;28;20224;-83
2023/07/22 00:55:05;;;;;;;4.83;1.07;;;13.70;99.90;;;;;;4982816;28;20793;-81
2023/07/22 00:57:31;;;;;;;1.97;0.87;;;13.70;99.90;;;;;;4994964;28;20533;-83
2023/07/22 00:59:57;;;;;;;2.03;0.77;;;13.70;99.90;;;;;;4978719;28;20219;-85
2023/07/22 01:02:25;;;;;;;1.37;1.00;;;13.70;99.90;;;;;;4979438;28;20250;-83
2023/07/22 01:04:51;;;;;;;0.90;0.90;;;13.70;99.90;;;;;;4978529;28;20222;-84
2023/07/22 01:07:19;;;;;;;2.03;1.63;;;13.70;99.90;;;;;;4978525;28;20183;-83
2023/07/22 01:09:45;;;;;;;0.47;0.47;;;13.70;99.90;;;;;;5012405;28;20195;-84
2023/07/22 01:12:11;;;;;;;0.73;0.70;;;13.60;99.90;;;;;;4994849;28;20254;-83
2023/07/22 01:14:40;;;;;;;0.70;0.60;;;13.50;99.90;;;;;;4976951;28;20705;-84
2023/07/22 01:17:08;;;;;;;0.63;0.50;;;13.50;99.90;;;;;;4992487;28;20230;-84
2023/07/22 01:19:35;;;;;;;0.60;0.60;;;13.50;99.90;;;;;;4991494;28;20216;-84
2023/07/22 01:22:03;;;;;;;0.63;0.53;;;13.50;99.90;;;;;;4975167;28;20214;-84
2023/07/22 01:24:29;;;;;;;5.10;0.60;;;13.40;99.90;;;;;;4993111;28;20187;-84
2023/07/22 01:26:55;;;;;;;0.87;0.87;;;13.40;99.90;;;;;;4939254;28;20821;-84
2023/07/22 01:29:27;;;;;;;0.73;0.60;;;13.40;99.90;;;;;;4963407;28;20212;-85
2023/07/22 01:31:54;;;;;;;0.53;0.53;;;13.40;99.90;;;;;;4972421;28;20373;-85
2023/07/22 01:34:21;;;;;;;0.80;0.60;;;13.40;99.90;;;;;;4939579;28;20283;-83
2023/07/22 01:36:48;;;;;;;0.50;0.50;;;13.40;99.90;;;;;;4955941;28;20173;-84
2023/07/22 01:39:15;;;;;;;1.33;0.70;;;13.40;99.90;;;;;;4955332;28;20220;-84
2023/07/22 01:41:41;;;;;;;1.00;0.70;;;13.40;99.90;;;;;;4955459;28;20771;-84
2023/07/22 01:44:07;;;;;;;0.87;0.87;;;13.30;99.90;;;;;;4939368;28;20229;-83
2023/07/22 01:46:33;;;;;;;2.87;0.80;;;13.20;99.90;;;;;;4971118;28;20216;-83
2023/07/22 01:49:01;;;;;;;4.73;1.13;;;13.20;99.90;;;;;;4938916;28;20264;-84
2023/07/22 01:51:27;;;;;;;0.50;0.50;;;13.10;99.90;;;;;;4940042;28;20180;-83
2023/07/22 01:54:00;;;;;;;0.60;0.47;;;13.10;99.90;;;;;;4955101;28;20220;-84
2023/07/22 01:56:26;;;;;;;0.70;0.53;;;13.00;99.90;;;;;;4955199;28;20279;-83
2023/07/22 01:58:52;;;;;;;1.03;0.90;;;12.90;99.90;;;;;;4938918;28;20224;-84
2023/07/22 02:01:18;;;;;;;1.50;0.80;;;13.00;99.90;;;;;;4954652;28;20292;-85
2023/07/22 02:03:44;;;;;;;0.83;0.60;;;13.00;99.90;;;;;;4938934;28;20181;-84
2023/07/22 02:06:09;;;;;;;0.57;0.53;;;13.10;99.90;;;;;;4972057;28;20283;-84
2023/07/22 02:08:36;;;;;;;0.63;0.63;;;13.10;99.90;;;;;;4970729;28;20232;-84
2023/07/22 02:11:06;;;;;;;0.87;0.60;;;13.10;99.90;;;;;;4953863;28;20278;-84
2023/07/22 02:13:36;;;;;;;1.40;1.20;;;13.20;99.90;;;;;;4958719;28;20779;-84
2023/07/22 02:16:02;;;;;;;1.13;1.03;;;13.20;99.90;;;;;;4973601;28;20238;-84
2023/07/22 02:18:28;;;;;;;1.10;0.77;;;13.20;99.90;;;;;;4974598;28;20184;-84
2023/07/22 02:20:57;;;;;;;1.23;0.60;;;13.20;99.90;;;;;;4973843;28;20384;-84
2023/07/22 02:23:24;;;;;;;1.10;0.60;;;13.20;99.90;;;;;;4991049;28;20573;-84
2023/07/22 02:25:53;;;;;;;1.90;1.00;;;13.20;99.90;;;;;;4990615;28;20246;-85
2023/07/22 02:28:21;;;;;;;1.47;0.97;;;13.10;99.90;;;;;;4973575;28;20228;-84
2023/07/22 02:30:52;;;;;;;3.23;1.00;;;13.10;99.90;;;;;;4958481;28;20180;-84
2023/07/22 02:33:19;;;;;;;1.20;1.17;;;13.00;99.90;;;;;;4990652;28;20223;-86
2023/07/22 02:35:45;;;;;;;1.70;1.10;;;13.00;99.90;;;;;;4973504;28;20212;-85
2023/07/22 02:38:11;;;;;;;2.10;1.30;;;12.90;99.90;;;;;;4957297;28;20212;-84
2023/07/22 02:40:40;;;;;;;6.13;0.90;;;12.90;99.90;;;;;;4990339;28;20231;-84
2023/07/22 02:43:06;;;;;;;3.23;1.00;;;12.80;99.90;;;;;;4973100;28;20629;-85
2023/07/22 02:45:36;;;;;;;4.93;1.87;;;12.80;99.90;;;;;;4974270;28;20180;-84
2023/07/22 02:48:05;;;;;;;1.80;0.83;;;12.80;99.90;;;;;;4973307;28;20755;-84
2023/07/22 02:50:31;;;;;;;0.80;0.80;;;12.70;99.90;;;;;;4957861;28;20236;-84
2023/07/22 02:52:57;;;;;;;1.73;1.23;;;12.70;99.90;;;;;;4957481;28;20220;-84
2023/07/22 02:55:23;;;;;;;2.07;1.07;;;12.70;99.90;;;;;;4972893;28;20243;-84
2023/07/22 02:57:49;;;;;;;2.50;2.17;;;12.60;99.90;;;;;;4973968;28;20751;-84
2023/07/22 03:00:26;;;;;;;1.20;0.63;;;12.60;99.90;;;;;;4969492;28;20235;-84
2023/07/22 03:03:02;;;;;;;2.03;1.93;;;12.50;99.90;;;;;;4968746;28;20298;-84
2023/07/22 03:05:29;;;;;;;1.20;0.83;;;12.50;99.90;;;;;;4969415;28;20224;-83
2023/07/22 03:07:56;;;;;;;1.57;0.90;;;12.40;99.90;;;;;;4960682;28;20221;-83
2023/07/22 03:10:22;;;;;;;1.33;1.13;;;12.40;99.90;;;;;;4957101;28;20216;-85
2023/07/22 03:12:49;;;;;;;1.47;0.73;;;12.30;99.90;;;;;;4973212;28;20208;-82
2023/07/22 03:15:15;;;;;;;1.90;1.17;;;12.30;99.90;;;;;;4992713;28;20231;-84
2023/07/22 03:17:44;;;;;;;1.47;0.70;;;12.30;99.90;;;;;;5003685;28;20286;-84
2023/07/22 03:20:14;;;;;;;1.90;1.07;;;12.30;99.90;;;;;;4991495;28;20298;-83
2023/07/22 03:22:43;;;;;;;2.47;1.30;;;12.30;99.90;;;;;;5008239;28;20287;-83
2023/07/22 03:25:16;;;;;;;1.90;0.93;;;12.20;99.90;;;;;;5007801;28;20183;-83
2023/07/22 03:27:45;;;;;;;2.37;1.30;;;12.20;99.90;;;;;;5005406;28;20265;-83
2023/07/22 03:30:16;;;;;;;2.80;1.30;;;12.20;99.90;;;;;;4988576;28;20226;-83
2023/07/22 03:32:44;;;;;;;0.80;0.80;;;12.20;99.90;;;;;;4987579;28;20258;-84
2023/07/22 03:35:10;;;;;;;0.90;0.80;;;12.10;99.90;;;;;;4988331;28;20243;-84
2023/07/22 03:37:36;;;;;;;2.50;1.00;;;12.10;99.90;;;;;;4971132;28;20220;-83
2023/07/22 03:40:07;;;;;;;1.30;1.00;;;12.20;99.90;;;;;;4970974;28;20769;-84
2023/07/22 03:42:34;;;;;;;2.30;1.30;;;12.10;99.90;;;;;;4987838;28;20208;-83
2023/07/22 03:44:59;;;;;;;1.33;1.07;;;12.10;99.90;;;;;;4961939;28;20282;-82
2023/07/22 03:47:28;;;;;;;5.17;1.47;;;12.20;99.90;;;;;;4971120;28;20224;-82
2023/07/22 03:49:56;;;;;;;1.30;1.20;;;12.20;99.90;;;;;;4987353;28;20673;-82
2023/07/22 03:52:22;;;;;;;5.33;1.67;;;12.30;99.90;;;;;;4987607;28;20298;-83
2023/07/22 03:54:48;;;;;;;7.83;2.20;;;12.30;99.90;;;;;;4988430;28;20191;-83
2023/07/22 03:57:14;;;;;;;1.23;1.00;;;12.30;99.90;;;;;;4988026;28;20888;-83
2023/07/22 03:59:40;;;;;;;3.07;1.33;;;12.40;99.90;;;;;;4988201;28;20636;-83
2023/07/22 04:02:06;;;;;;;3.03;1.20;;;12.40;99.90;;;;;;4970472;28;20220;-85
2023/07/22 04:04:32;;;;;;;2.47;1.27;;;12.50;99.90;;;;;;4988369;28;20223;-83
2023/07/22 04:06:57;;;;;;;2.57;1.33;;;12.50;99.90;;;;;;4988353;28;20626;-84
2023/07/22 04:09:23;;;;;;;6.53;1.67;;;12.60;99.90;;;;;;4970952;28;20638;-84
2023/07/22 04:11:49;;;;;;;3.77;1.50;;;12.70;99.90;;;;;;4970668;28;20599;-84
2023/07/22 04:14:15;;;;;;;1.83;1.37;;;12.70;99.90;;;;;;4999496;28;20820;-83
2023/07/22 04:16:41;;;;;;;3.00;1.50;;;12.80;99.90;;;;;;4990085;28;20314;-83
2023/07/22 04:19:07;;;;;;;1.40;1.03;;;12.80;99.90;;;;;;4974272;28;20805;-84
2023/07/22 04:21:33;;;;;;;4.10;1.40;;;12.90;99.90;;;;;;4991323;28;20194;-84
2023/07/22 04:23:58;;;;;;;1.83;1.57;;;13.00;99.90;;;;;;4961290;28;20701;-84
2023/07/22 04:26:24;;;;;;;2.50;1.90;;;13.10;99.90;;;;;;4990096;28;20223;-83
2023/07/22 04:28:50;;;;;;;2.57;1.80;;;13.20;99.90;;;;;;4990857;28;20215;-83
2023/07/22 04:31:16;;;;;;;3.07;2.33;;;13.30;99.90;;;;;;4990207;28;20626;-84
2023/07/22 04:33:42;;;;;;;3.80;2.13;;;13.40;99.90;;;;;;4975463;28;20183;-83
2023/07/22 04:36:07;;;;;;;2.27;2.03;;;13.40;99.90;;;;;;4974054;28;20689;-84
2023/07/22 04:38:33;;;;;;;5.50;2.47;;;13.50;99.90;;;;;;4990930;28;20699;-83
2023/07/22 04:41:02;;;;;;;3.23;1.37;;;13.70;99.90;;;;;;4989928;28;20234;-84
2023/07/22 04:43:27;;;;;;;4.60;2.73;;;13.80;99.90;;;;;;4973955;28;20262;-83
2023/07/22 04:45:53;;;;;;;2.80;1.90;;;13.80;99.90;;;;;;4991482;28;20183;-84
2023/07/22 04:48:22;;;;;;;5.30;3.40;;;13.90;99.90;;;;;;4982480;28;20223;-83
2023/07/22 04:50:48;;;;;;;3.73;2.47;;;14.00;99.90;;;;;;4990556;28;20301;-83
2023/07/22 04:53:16;;;;;;;2.60;1.83;;;14.10;99.90;;;;;;4990632;28;20814;-85
2023/07/22 04:55:42;;;;;;;6.33;2.53;;;14.10;99.90;;;;;;4974199;28;20471;-84
2023/07/22 04:58:09;;;;;;;5.57;3.00;;;14.20;99.90;;;;;;4990678;28;20717;-83
2023/07/22 05:00:42;;;;;;;6.37;3.40;;;14.30;99.90;;;;;;4990930;28;20246;-83
2023/07/22 05:03:10;;;;;;;5.33;4.13;;;14.30;99.90;;;;;;4990688;28;20227;-83
2023/07/22 05:05:36;;;;;;;4.53;2.57;;;14.40;99.90;;;;;;4990257;28;20255;-83
2023/07/22 05:08:02;;;;;;;10.57;2.67;;;14.50;99.90;;;;;;4973802;28;20298;-84
2023/07/22 05:10:31;;;;;;;4.10;2.73;;;14.60;99.90;;;;;;4989986;28;20270;-83
2023/07/22 05:12:59;;;;;;;5.20;2.53;;;14.80;99.90;;;;;;4974648;28;20194;-83
2023/07/22 05:15:25;;;;;;;6.80;3.03;;;14.90;99.90;;;;;;4971758;28;20299;-83
2023/07/22 05:17:51;;;;;;;5.80;2.77;;;14.90;99.90;;;;;;4954752;28;20511;-84
2023/07/22 05:20:17;;;;;;;6.73;3.57;;;14.90;99.90;;;;;;4998182;28;20299;-83
2023/07/22 05:22:43;;;;;;;6.10;2.93;;;14.90;99.90;;;;;;5007695;28;20222;-83
2023/07/22 05:25:12;;;;;;;6.43;2.30;;;14.80;99.90;;;;;;5007435;28;20179;-83
2023/07/22 05:27:41;;;;;;;4.90;2.70;;;14.60;99.90;;;;;;5008845;28;20176;-85
2023/07/22 05:30:13;;;;;;;10.93;2.77;;;14.60;99.90;;;;;;4965748;28;20211;-85
2023/07/22 05:32:41;;;;;;;4.97;2.70;;;14.60;99.90;;;;;;4990573;28;20589;-86
2023/07/22 05:35:19;;;;;;;6.53;2.63;;;14.50;99.90;;;;;;4990793;28;20226;-85
2023/07/22 05:37:45;;;;;;;11.87;3.43;;;14.60;99.90;;;;;;4970657;28;20210;-86
2023/07/22 05:40:13;;;;;;;9.03;3.47;;;14.60;99.90;;;;;;4993912;28;20629;-85
2023/07/22 05:42:48;;;;;;;5.27;2.50;;;14.60;99.90;;;;;;4978236;28;20289;-85
2023/07/22 05:45:16;;;;;;;8.93;3.30;;;14.70;99.90;;;;;;4993914;28;20222;-84
2023/07/22 05:47:49;;;;;;;5.67;3.53;;;14.80;99.90;;;;;;4964978;28;20262;-84
2023/07/22 05:50:15;;;;;;;6.00;2.93;;;14.90;99.90;;;;;;4993479;28;20219;-84
2023/07/22 05:52:44;;;;;;;5.70;2.90;;;15.00;99.90;;;;;;4993229;28;20574;-84
2023/07/22 05:55:15;;;;;;;9.67;2.77;;;15.10;99.90;;;;;;5009689;28;20168;-84
2023/07/22 05:57:44;;;;;;;4.57;3.07;;;15.20;99.90;;;;;;4977985;28;20191;-84
2023/07/22 06:00:12;;;;;;;6.73;3.07;;;15.20;99.90;;;;;;4977130;28;20222;-84
2023/07/22 06:02:38;;;;;;;5.20;2.87;;;15.20;99.90;;;;;;4993087;28;20317;-84
2023/07/22 06:05:04;;;;;;;6.10;3.00;;;15.30;99.90;;;;;;4976100;28;20789;-85
2023/07/22 06:07:30;;;;;;;6.50;3.07;;;15.30;99.90;;;;;;4993028;28;20727;-84
2023/07/22 06:09:59;;;;;;;5.30;3.23;;;15.40;99.90;;;;;;5010954;28;20199;-84
2023/07/22 06:12:27;;;;;;;5.03;3.03;;;15.40;99.90;;;;;;4993110;28;20222;-85
2023/07/22 06:14:54;;;;;;;9.47;3.53;;;15.40;99.90;;;;;;4977040;28;20247;-86
2023/07/22 06:17:22;;;;;;;3.97;3.43;;;15.30;99.90;;;;;;4977970;28;20227;-85
2023/07/22 06:19:48;;;;;;;5.93;3.90;;;15.30;99.90;;;;;;4977381;28;20223;-84
2023/07/22 06:22:13;;;;;;;8.20;3.20;;;15.30;99.90;;;;;;4992351;28;20199;-86
2023/07/22 06:24:42;;;;;;;7.63;3.33;;;15.30;99.90;;;;;;4978116;28;20218;-84
2023/07/22 06:27:10;;;;;;;7.10;3.80;;;15.40;99.90;;;;;;4976935;28;20606;-84
2023/07/22 06:29:36;;;;;;;6.53;3.70;;;15.40;99.90;;;;;;4993005;28;20219;-86
2023/07/22 06:32:02;;;;;;;6.97;3.03;;;15.40;99.90;;;;;;4992965;28;20313;-85
2023/07/22 06:34:28;;;;;;;4.17;2.73;;;15.30;99.90;;;;;;4992954;28;20221;-85
2023/07/22 06:36:56;;;;;;;6.23;3.53;;;15.20;99.90;;;;;;4993460;28;20184;-85
2023/07/22 06:39:21;;;;;;;4.10;3.77;;;15.30;99.90;;;;;;4976350;28;20302;-86
2023/07/22 06:42:02;;;;;;;8.70;3.27;;;15.30;99.90;;;;;;4976615;28;20227;-87
2023/07/22 06:44:46;;;;;;;9.43;3.67;;;15.20;99.90;;;;;;4993091;28;20222;-86
2023/07/22 06:47:12;;;;;;;5.50;3.67;;;15.30;99.90;;;;;;4992016;28;20215;-85
2023/07/22 06:49:39;;;;;;;5.87;2.93;;;15.30;99.90;;;;;;4992247;28;20211;-85
2023/07/22 06:52:14;;;;;;;8.80;3.73;;;15.30;99.90;;;;;;4992666;28;20218;-84
2023/07/22 06:54:40;;;;;;;7.07;3.03;;;15.20;99.90;;;;;;4993386;28;20262;-85
2023/07/22 06:57:06;;;;;;;6.70;3.23;;;14.90;99.90;;;;;;4991920;28;20707;-84
2023/07/22 06:59:32;;;;;;;7.93;3.00;;;14.90;99.90;;;;;;4991899;28;20226;-84
2023/07/22 07:01:59;;;;;;;5.90;3.33;;;14.90;99.90;;;;;;4991521;28;20222;-84
2023/07/22 07:04:25;;;;;;;5.97;3.10;;;14.90;99.90;;;;;;4991502;28;20225;-84
2023/07/22 07:06:51;;;;;;;5.37;3.30;;;15.10;99.90;;;;;;5010464;28;20187;-83
2023/07/22 07:09:19;;;;;;;5.57;2.33;;;15.20;99.90;;;;;;4991896;28;20214;-83
2023/07/22 07:11:45;;;;;;;7.77;3.77;;;15.10;99.90;;;;;;4991510;28;20250;-83
2023/07/22 07:14:11;;;;;;;5.37;3.13;;;15.00;99.90;;;;;;4990529;28;20394;-85
2023/07/22 07:16:37;;;;;;;8.53;3.57;;;15.00;99.90;;;;;;4961942;28;20271;-82
2023/07/22 07:19:06;;;;;;;6.27;3.17;;;15.10;99.90;;;;;;4970742;28;20579;-83
2023/07/22 07:21:32;;;;;;;8.03;4.10;;;15.20;99.90;;;;;;5008121;28;20203;-85
2023/07/22 07:23:58;;;;;;;5.93;3.33;;;15.30;99.90;;;;;;5006951;28;20225;-84
2023/07/22 07:26:24;;;;;;;6.73;3.30;;;15.40;99.90;;;;;;4991023;28;20302;-84
2023/07/22 07:28:50;;;;;;;7.80;2.87;;;15.50;99.90;;;;;;4990645;28;20215;-83
2023/07/22 07:31:17;;;;;;;8.03;4.73;;;15.50;99.90;;;;;;4974378;28;20640;-84
2023/07/22 07:33:43;;;;;;;7.13;3.50;;;15.60;99.90;;;;;;4959195;28;20699;-82
2023/07/22 07:36:10;;;;;;;6.67;4.13;;;16.00;99.90;;;;;;4990520;28;20223;-84
2023/07/22 07:38:35;;;;;;;7.57;4.70;;;16.40;99.90;;;;;;4990934;28;20227;-84
2023/07/22 07:41:11;;;;;;;9.57;4.57;;;16.80;99.90;;;;;;5008202;28;20306;-83
2023/07/22 07:43:40;;;;;;;8.80;5.07;;;17.40;99.90;;;;;;4990689;28;20222;-82
2023/07/22 07:46:23;;;;;;;12.90;6.23;;;18.10;99.90;;;;;;5007820;28;20182;-82
2023/07/22 07:48:52;;;;;;;6.63;3.70;;;18.60;99.90;;;;;;4991413;28;20159;-83
2023/07/22 07:51:23;;;;;;;11.17;4.47;;;19.00;99.90;;;;;;4990653;28;20775;-83
2023/07/22 07:53:49;;;;;;;10.63;4.40;;;19.10;99.90;;;;;;5007367;28;20211;-83
2023/07/22 07:56:16;;;;;;;7.37;3.93;;;19.40;99.90;;;;;;5007615;28;20361;-82
2023/07/22 07:58:43;;;;;;;8.27;4.33;;;19.80;99.90;;;;;;4989888;28;20241;-82
2023/07/22 08:01:09;;;;;;;6.23;4.10;;;20.30;99.90;;;;;;4988833;28;20669;-82
2023/07/22 08:03:36;;;;;;;7.30;4.03;;;20.20;99.90;;;;;;4990203;28;20214;-82
2023/07/22 08:06:03;;;;;;;6.93;3.97;;;20.40;99.90;;;;;;4973537;28;20702;-82
2023/07/22 08:08:29;;;;;;;7.00;3.50;;;20.40;99.90;;;;;;4989728;28;20219;-82
2023/07/22 08:10:58;;;;;;;7.73;4.77;;;20.00;99.90;;;;;;4974010;28;20223;-83
2023/07/22 08:13:24;;;;;;;6.53;3.40;;;19.50;99.90;;;;;;4989331;28;20270;-84
2023/07/22 08:15:50;;;;;;;9.13;4.10;;;19.30;99.90;;;;;;4991172;28;20207;-82
2023/07/22 08:18:15;;;;;;;6.23;3.50;;;19.20;99.90;;;;;;5007352;28;20679;-84
2023/07/22 08:20:41;;;;;;;7.53;3.17;;;19.60;99.90;;;;;;4990090;28;20819;-82
2023/07/22 08:23:07;;;;;;;7.07;3.07;;;19.90;99.90;;;;;;4973514;28;20238;-84
2023/07/22 08:25:35;;;;;;;7.20;3.47;;;20.10;99.90;;;;;;4989709;28;20800;-82
2023/07/22 08:28:01;;;;;;;7.83;3.57;;;20.10;99.90;;;;;;4973551;28;20177;-82
2023/07/22 08:30:26;;;;;;;7.40;3.43;;;20.30;99.90;;;;;;4974400;28;20176;-83
2023/07/22 08:32:52;;;;;;;7.87;3.03;;;20.30;99.90;;;;;;4973618;28;20277;-83
2023/07/22 08:35:18;;;;;;;5.73;3.03;;;20.40;99.90;;;;;;4989966;28;20685;-82
2023/07/22 08:37:44;;;;;;;4.57;3.07;;;20.70;99.90;;;;;;4989944;28;20629;-82
2023/07/22 08:40:10;;;;;;;6.67;3.07;;;21.00;99.90;;;;;;4957968;28;20614;-85
2023/07/22 08:42:37;;;;;;;6.07;3.40;;;20.70;99.90;;;;;;4990378;28;20233;-83
2023/07/22 08:45:05;;;;;;;6.63;3.03;;;20.60;99.90;;;;;;4973254;28;20223;-83
2023/07/22 08:47:32;;;;;;;5.27;2.97;;;20.30;99.90;;;;;;4973639;28;20273;-83
2023/07/22 08:50:02;;;;;;;5.13;3.30;;;20.30;99.90;;;;;;4973678;28;20211;-83
2023/07/22 08:52:28;;;;;;;3.67;2.57;;;19.70;99.90;;;;;;4989331;28;20219;-84
2023/07/22 08:54:55;;;;;;;5.20;2.27;;;19.30;99.90;;;;;;4973910;28;20175;-83
2023/07/22 08:57:22;;;;;;;6.97;3.10;;;18.80;99.90;;;;;;4972817;28;20246;-82
2023/07/22 08:59:48;;;;;;;3.23;2.00;;;18.40;99.90;;;;;;4980102;28;20223;-83
2023/07/22 09:02:15;;;;;;;5.50;2.33;;;17.90;99.90;;;;;;4989467;28;20583;-83
2023/07/22 09:04:42;;;;;;;3.10;2.40;;;17.80;99.90;;;;;;4973385;28;20261;-84
2023/07/22 09:07:11;;;;;;;2.07;1.83;;;17.70;99.90;;;;;;4973549;28;20690;-84
2023/07/22 09:09:37;;;;;;;2.03;1.70;;;17.70;99.90;;;;;;5007763;28;20211;-83
2023/07/22 09:12:04;;;;;;;3.10;2.07;;;17.50;99.90;;;;;;4992184;28;20654;-84
2023/07/22 09:14:32;;;;;;;2.33;1.57;;;17.30;99.90;;;;;;4981779;28;20232;-85
2023/07/22 09:16:58;;;;;;;2.90;1.87;;;17.20;99.90;;;;;;4992462;28;20310;-84
2023/07/22 09:19:24;;;;;;;2.13;1.73;;;17.10;99.90;;;;;;4974676;28;21221;-85
2023/07/22 09:21:58;;;;;;;4.27;1.50;;;17.10;99.90;;;;;;4975550;28;20212;-86
2023/07/22 09:24:27;;;;;;;2.27;1.73;;;17.10;99.90;;;;;;4991793;28;20421;-85
2023/07/22 09:26:53;;;;;;;2.67;1.50;;;17.00;99.90;;;;;;4974329;28;20296;-85
2023/07/22 09:29:33;;;;;;;3.10;1.93;;;17.00;99.90;;;;;;4942676;28;20227;-84
2023/07/22 09:31:59;;;;;;;3.67;1.80;;;16.80;99.90;;;;;;4992474;28;20247;-84
2023/07/22 09:34:27;;;;;;;2.77;2.07;;;16.90;99.90;;;;;;4942596;28;20626;-85
2023/07/22 09:36:55;;;;;;;4.40;2.13;;;17.00;99.90;;;;;;4992310;28;20191;-84
2023/07/22 09:39:22;;;;;;;2.80;2.03;;;17.10;99.90;;;;;;4974040;28;20291;-83
2023/07/22 09:41:48;;;;;;;5.07;2.47;;;17.20;99.90;;;;;;4990972;28;20219;-84
2023/07/22 09:44:14;;;;;;;2.37;1.77;;;17.20;99.90;;;;;;4954132;28;20670;-84
2023/07/22 09:46:40;;;;;;;3.20;1.20;;;17.40;99.90;;;;;;4953770;28;20244;-83
2023/07/22 09:49:08;;;;;;;2.77;1.67;;;17.50;99.90;;;;;;4953947;28;20639;-83
2023/07/22 09:51:36;;;;;;;2.43;1.80;;;17.50;99.90;;;;;;4971834;28;20188;-84
2023/07/22 09:54:03;;;;;;;3.47;2.07;;;17.50;99.90;;;;;;4970313;28;20567;-85
2023/07/22 09:56:30;;;;;;;3.23;2.00;;;17.40;99.90;;;;;;4990542;28;20270;-86
2023/07/22 09:59:03;;;;;;;3.03;2.73;;;17.30;99.90;;;;;;4973369;28;20239;-85
2023/07/22 10:01:33;;;;;;;4.43;2.20;;;17.20;99.90;;;;;;4974473;28;20238;-85
2023/07/22 10:04:00;;;;;;;3.37;2.43;;;17.10;99.90;;;;;;4943216;28;20629;-85
2023/07/22 10:06:33;;;;;;;1.80;1.63;;;17.00;99.90;;;;;;4973896;28;20744;-85
2023/07/22 10:09:10;;;;;;;3.00;1.40;;;16.90;99.90;;;;;;4974073;28;20256;-85
2023/07/22 10:11:36;;;;;;;3.27;1.90;;;16.80;99.90;;;;;;4990731;28;20251;-84
2023/07/22 10:14:02;;;;;;;2.70;2.13;;;16.70;99.90;;;;;;4970716;28;20720;-84
2023/07/22 10:16:35;;;;;;;4.37;2.30;;;16.90;99.90;;;;;;4990039;28;20290;-86
2023/07/22 10:19:03;;;;;;;3.73;2.13;;;16.90;99.90;;;;;;4958034;28;20180;-85
2023/07/22 10:21:29;;;;;;;2.20;1.57;;;16.90;99.90;;;;;;4974049;28;20199;-85
2023/07/22 10:24:00;;;;;;;4.53;1.97;;;16.80;99.90;;;;;;4972521;28;20211;-84
2023/07/22 10:26:26;;;;;;;3.57;2.20;;;16.80;99.90;;;;;;4972986;28;20216;-85
2023/07/22 10:28:55;;;;;;;4.63;1.83;;;16.90;99.90;;;;;;4973304;28;20227;-85
2023/07/22 10:31:22;;;;;;;4.87;2.53;;;17.00;99.90;;;;;;4973320;28;20423;-86
2023/07/22 10:33:48;;;;;;;4.93;3.13;;;17.10;99.90;;;;;;4973953;28;20188;-84
2023/07/22 10:36:16;;;;;;;5.37;2.93;;;17.00;99.90;;;;;;4972772;28;20805;-85
2023/07/22 10:38:42;;;;;;;6.40;2.73;;;17.20;99.90;;;;;;4972352;28;20278;-85
2023/07/22 10:41:17;;;;;;;2.13;1.90;;;17.20;99.90;;;;;;4989444;28;20278;-86
2023/07/22 10:43:55;;;;;;;6.70;2.53;;;17.20;99.90;;;;;;4942872;28;20220;-85
2023/07/22 10:46:43;;;;;;;4.23;1.77;;;17.40;99.90;;;;;;4979879;28;20223;-84
2023/07/22 10:49:16;;;;;;;3.00;2.03;;;17.40;99.90;;;;;;4989594;28;20172;-86
2023/07/22 10:51:48;;;;;;;3.97;2.20;;;17.20;99.90;;;;;;4972740;28;20278;-86
2023/07/22 10:54:15;;;;;;;3.07;2.17;;;17.10;99.90;;;;;;4972083;28;20216;-86
2023/07/22 10:56:44;;;;;;;3.13;2.20;;;17.10;99.90;;;;;;4970762;28;20220;-87
2023/07/22 10:59:25;;;;;;;5.20;2.77;;;16.80;99.90;;;;;;4971833;28;20240;-86
2023/07/22 11:01:54;;;;;;;3.10;2.10;;;16.60;99.90;;;;;;4971653;28;20323;-87
2023/07/22 11:04:35;;;;;;;4.60;3.23;;;16.60;99.90;;;;;;4980931;28;20251;-87
2023/07/22 11:07:05;;;;;;;3.23;2.23;;;16.40;99.90;;;;;;4987948;28;20223;-87
2023/07/22 11:09:35;;;;;;;4.10;2.90;;;16.50;99.90;;;;;;4972411;28;20222;-86
2023/07/22 11:12:12;;;;;;;5.67;2.40;;;16.60;99.90;;;;;;4978847;28;20231;-84
2023/07/22 11:14:52;;;;;;;2.93;2.27;;;16.80;99.90;;;;;;4971232;28;20244;-83
2023/07/22 11:17:31;;;;;;;5.27;2.07;;;17.10;99.90;;;;;;4971410;28;20235;-84
2023/07/22 11:20:00;;;;;;;5.80;2.60;;;16.90;99.90;;;;;;4971417;28;20231;-84
2023/07/22 11:22:26;;;;;;;3.80;3.10;;;17.00;99.90;;;;;;4971104;28;20224;-85
2023/07/22 11:24:52;;;;;;;4.93;2.97;;;17.30;99.90;;;;;;4955922;28;20192;-85
2023/07/22 11:27:19;;;;;;;3.07;2.57;;;17.20;99.90;;;;;;4971442;28;20818;-84
2023/07/22 11:29:45;;;;;;;2.97;2.67;;;17.40;99.90;;;;;;4970880;28;20227;-86
2023/07/22 11:32:21;;;;;;;3.57;2.27;;;17.50;99.90;;;;;;4955518;28;20279;-83
2023/07/22 11:34:46;;;;;;;4.97;2.80;;;17.80;99.90;;;;;;4971170;28;20285;-84
2023/07/22 11:37:14;;;;;;;3.70;3.13;;;18.00;99.90;;;;;;4971300;28;20559;-83
2023/07/22 11:39:41;;;;;;;5.77;3.53;;;18.20;99.90;;;;;;4971868;28;20642;-83
2023/07/22 11:42:07;;;;;;;5.70;3.53;;;18.40;99.90;;;;;;4955031;28;20228;-85
2023/07/22 11:44:33;;;;;;;7.93;2.83;;;18.60;99.90;;;;;;4955429;28;20267;-84
2023/07/22 11:47:00;;;;;;;5.03;3.43;;;18.60;99.90;;;;;;4971383;28;20223;-85
2023/07/22 11:49:36;;;;;;;2.83;2.33;;;18.60;99.90;;;;;;4971512;28;20294;-85
2023/07/22 11:52:04;;;;;;;6.57;3.23;;;18.90;99.90;;;;;;4988591;28;20187;-84
2023/07/22 11:54:33;;;;;;;4.33;3.07;;;19.00;99.90;;;;;;4971316;28;20187;-85
2023/07/22 11:57:29;;;;;;;5.33;3.77;;;19.10;99.90;;;;;;4971085;28;20311;-83
2023/07/22 11:59:57;;;;;;;3.07;2.47;;;19.40;99.90;;;;;;4987596;28;20228;-83
2023/07/22 12:02:31;;;;;;;3.23;2.67;;;19.60;99.90;;;;;;4954563;28;20247;-83
2023/07/22 12:05:05;;;;;;;3.57;2.80;;;19.90;99.90;;;;;;4988166;28;20211;-84
2023/07/22 12:07:38;;;;;;;4.27;3.00;;;19.90;99.90;;;;;;4970865;28;20246;-85
2023/07/22 12:10:06;;;;;;;4.27;2.77;;;20.20;99.90;;;;;;4987914;28;20271;-84
2023/07/22 12:12:36;;;;;;;4.50;2.40;;;20.40;99.90;;;;;;4954897;28;20192;-84
2023/07/22 12:15:16;;;;;;;4.50;2.63;;;20.60;99.90;;;;;;4979419;28;20317;-84
2023/07/22 12:17:45;;;;;;;3.80;2.47;;;20.40;99.90;;;;;;4987738;28;20235;-82
2023/07/22 12:20:11;;;;;;;2.90;2.70;;;19.70;99.90;;;;;;4970241;28;20235;-83
2023/07/22 12:22:37;;;;;;;3.20;2.80;;;19.30;99.90;;;;;;4954153;28;20232;-83
2023/07/22 12:25:07;;;;;;;4.70;3.57;;;19.30;99.90;;;;;;4970002;28;20280;-84
2023/07/22 12:27:33;;;;;;;4.07;3.23;;;19.30;99.90;;;;;;4987920;28;20279;-83
2023/07/22 12:29:59;;;;;;;4.20;2.80;;;19.20;99.90;;;;;;4987078;28;20224;-82
2023/07/22 12:32:25;;;;;;;2.77;2.23;;;18.90;99.90;;;;;;4969851;28;20223;-86
2023/07/22 12:34:50;;;;;;;4.17;3.43;;;18.80;99.90;;;;;;4970216;28;20286;-82
2023/07/22 12:37:16;;;;;;;3.67;2.73;;;18.70;99.90;;;;;;4953995;28;20200;-86
2023/07/22 12:39:42;;;;;;;2.23;2.00;;;18.60;99.90;;;;;;4954765;28;20203;-82
2023/07/22 12:42:08;;;;;;;2.70;1.90;;;18.40;99.90;;;;;;4986944;28;20693;-84
2023/07/22 12:44:34;;;;;;;2.70;2.03;;;18.20;99.90;;;;;;4969730;28;20681;-81
2023/07/22 12:46:59;;;;;;;1.73;1.50;;;18.40;99.90;;;;;;4986077;28;20313;-84
2023/07/22 12:49:26;;;;;;;2.13;1.93;;;18.50;99.90;;;;;;4970014;28;20235;-81